sensor_id;sensor_type;location;lat;lon;timestamp;temperature;humidity
4209;DHT22;36320;48.860;2.380;2023-01-04T04:41:31;15.70;82.00
4209;DHT22;36320;48.860;2.380;2023-01-04T04:44:12;15.80;82.00
4209;DHT22;36320;48.860;2.380;2023-01-04T04:51:30;15.80;82.00
4209;DHT22;36320;48.860;2.380;2023-01-04T04:53:56;15.80;82.00
4209;DHT22;36320;48.860;2.380;2023-01-04T04:56:22;15.70;81.90
4209;DHT22;36320;48.860;2.380;2023-01-04T04:58:48;15.80;82.80
4209;DHT22;36320;48.860;2.380;2023-01-04T05:01:14;15.80;82.30
4209;DHT22;36320;48.860;2.380;2023-01-04T05:03:40;15.80;82.30
4209;DHT22;36320;48.860;2.380;2023-01-04T05:06:06;15.80;82.10
4209;DHT22;36320;48.860;2.380;2023-01-04T05:08:31;15.80;82.10
4209;DHT22;36320;48.860;2.380;2023-01-04T05:10:57;15.80;82.90
4209;DHT22;36320;48.860;2.380;2023-01-04T05:13:23;15.80;82.90
4209;DHT22;36320;48.860;2.380;2023-01-04T05:15:50;15.80;82.90
4209;DHT22;36320;48.860;2.380;2023-01-04T05:18:18;15.80;82.90
4209;DHT22;36320;48.860;2.380;2023-01-04T05:20:45;15.80;82.90
4209;DHT22;36320;48.860;2.380;2023-01-04T05:23:13;15.80;82.90
4209;DHT22;36320;48.860;2.380;2023-01-04T05:25:39;15.80;83.00
4209;DHT22;36320;48.860;2.380;2023-01-04T05:28:05;15.80;83.00
4209;DHT22;36320;48.860;2.380;2023-01-04T05:30:31;15.80;83.00
4209;DHT22;36320;48.860;2.380;2023-01-04T05:33:23;15.80;82.90
4209;DHT22;36320;48.860;2.380;2023-01-04T05:35:50;15.80;83.10
4209;DHT22;36320;48.860;2.380;2023-01-04T05:38:17;15.80;83.00
4209;DHT22;36320;48.860;2.380;2023-01-04T05:40:43;15.80;83.10
4209;DHT22;36320;48.860;2.380;2023-01-04T05:43:09;15.90;83.20
4209;DHT22;36320;48.860;2.380;2023-01-04T05:45:35;15.90;83.10
4209;DHT22;36320;48.860;2.380;2023-01-04T05:48:00;15.80;83.10
4209;DHT22;36320;48.860;2.380;2023-01-04T05:50:26;15.90;83.30
4209;DHT22;36320;48.860;2.380;2023-01-04T05:52:52;15.80;83.30
4209;DHT22;36320;48.860;2.380;2023-01-04T05:55:18;15.80;83.30
4209;DHT22;36320;48.860;2.380;2023-01-04T05:57:44;15.80;83.40
4209;DHT22;36320;48.860;2.380;2023-01-04T06:00:11;15.80;83.50
4209;DHT22;36320;48.860;2.380;2023-01-04T06:02:37;15.80;83.60
4209;DHT22;36320;48.860;2.380;2023-01-04T06:05:03;15.80;83.70
4209;DHT22;36320;48.860;2.380;2023-01-04T06:07:29;15.80;83.80
4209;DHT22;36320;48.860;2.380;2023-01-04T06:09:55;15.80;84.00
4209;DHT22;36320;48.860;2.380;2023-01-04T06:12:42;15.20;85.40
4209;DHT22;36320;48.860;2.380;2023-01-04T06:15:09;14.60;87.00
4209;DHT22;36320;48.860;2.380;2023-01-04T06:17:36;14.50;87.90
4209;DHT22;36320;48.860;2.380;2023-01-04T06:20:03;14.40;88.40
4209;DHT22;36320;48.860;2.380;2023-01-04T06:22:30;14.40;88.50
4209;DHT22;36320;48.860;2.380;2023-01-04T06:24:57;14.30;88.70
4209;DHT22;36320;48.860;2.380;2023-01-04T06:27:23;14.20;89.40
4209;DHT22;36320;48.860;2.380;2023-01-04T06:29:49;14.20;89.50
4209;DHT22;36320;48.860;2.380;2023-01-04T06:32:15;14.10;89.70
4209;DHT22;36320;48.860;2.380;2023-01-04T06:34:40;14.10;90.00
4209;DHT22;36320;48.860;2.380;2023-01-04T06:37:06;14.00;90.30
4209;DHT22;36320;48.860;2.380;2023-01-04T06:39:32;14.00;90.30
4209;DHT22;36320;48.860;2.380;2023-01-04T06:41:58;14.10;90.30
4209;DHT22;36320;48.860;2.380;2023-01-04T06:44:23;13.90;90.50
4209;DHT22;36320;48.860;2.380;2023-01-04T06:46:49;13.80;90.80
4209;DHT22;36320;48.860;2.380;2023-01-04T06:49:15;13.80;91.00
4209;DHT22;36320;48.860;2.380;2023-01-04T06:51:44;13.80;91.20
4209;DHT22;36320;48.860;2.380;2023-01-04T06:54:16;13.60;91.50
4209;DHT22;36320;48.860;2.380;2023-01-04T06:56:41;13.70;91.90
4209;DHT22;36320;48.860;2.380;2023-01-04T06:59:07;13.60;91.70
4209;DHT22;36320;48.860;2.380;2023-01-04T07:01:35;13.60;91.80
4209;DHT22;36320;48.860;2.380;2023-01-04T07:04:00;13.70;91.80
4209;DHT22;36320;48.860;2.380;2023-01-04T07:06:26;13.70;91.80
4209;DHT22;36320;48.860;2.380;2023-01-04T07:08:52;13.90;91.80
4209;DHT22;36320;48.860;2.380;2023-01-04T07:11:20;13.40;91.70
4209;DHT22;36320;48.860;2.380;2023-01-04T07:13:46;13.70;91.90
4209;DHT22;36320;48.860;2.380;2023-01-04T07:16:11;13.80;91.90
4209;DHT22;36320;48.860;2.380;2023-01-04T07:18:37;13.80;91.90
4209;DHT22;36320;48.860;2.380;2023-01-04T07:21:03;13.90;91.80
4209;DHT22;36320;48.860;2.380;2023-01-04T07:23:29;14.00;91.60
4209;DHT22;36320;48.860;2.380;2023-01-04T07:25:54;14.00;91.50
4209;DHT22;36320;48.860;2.380;2023-01-04T07:28:24;14.10;91.50
4209;DHT22;36320;48.860;2.380;2023-01-04T07:31:09;14.10;91.40
4209;DHT22;36320;48.860;2.380;2023-01-04T07:33:34;14.10;91.30
4209;DHT22;36320;48.860;2.380;2023-01-04T07:36:04;14.10;91.20
4209;DHT22;36320;48.860;2.380;2023-01-04T07:38:32;14.10;91.30
4209;DHT22;36320;48.860;2.380;2023-01-04T07:40:58;14.10;91.20
4209;DHT22;36320;48.860;2.380;2023-01-04T07:43:24;14.20;91.20
4209;DHT22;36320;48.860;2.380;2023-01-04T07:45:50;14.30;91.10
4209;DHT22;36320;48.860;2.380;2023-01-04T07:48:15;14.20;91.00
4209;DHT22;36320;48.860;2.380;2023-01-04T07:50:41;14.20;91.00
4209;DHT22;36320;48.860;2.380;2023-01-04T07:53:07;14.20;91.10
4209;DHT22;36320;48.860;2.380;2023-01-04T07:55:34;14.30;91.10
4209;DHT22;36320;48.860;2.380;2023-01-04T07:57:59;14.30;91.00
4209;DHT22;36320;48.860;2.380;2023-01-04T08:00:25;14.30;91.00
4209;DHT22;36320;48.860;2.380;2023-01-04T08:02:51;14.40;90.90
4209;DHT22;36320;48.860;2.380;2023-01-04T08:05:16;14.40;90.90
4209;DHT22;36320;48.860;2.380;2023-01-04T08:07:58;14.50;90.90
4209;DHT22;36320;48.860;2.380;2023-01-04T08:10:38;14.50;90.90
4209;DHT22;36320;48.860;2.380;2023-01-04T08:13:04;14.40;90.90
4209;DHT22;36320;48.860;2.380;2023-01-04T08:15:29;14.50;91.00
4209;DHT22;36320;48.860;2.380;2023-01-04T08:17:55;14.50;90.90
4209;DHT22;36320;48.860;2.380;2023-01-04T08:20:21;14.50;91.00
4209;DHT22;36320;48.860;2.380;2023-01-04T08:22:47;14.50;91.10
4209;DHT22;36320;48.860;2.380;2023-01-04T08:25:13;14.40;91.20
4209;DHT22;36320;48.860;2.380;2023-01-04T08:27:39;14.40;91.40
4209;DHT22;36320;48.860;2.380;2023-01-04T08:30:07;14.30;91.40
4209;DHT22;36320;48.860;2.380;2023-01-04T08:32:32;14.50;91.50
4209;DHT22;36320;48.860;2.380;2023-01-04T08:34:58;14.40;91.40
4209;DHT22;36320;48.860;2.380;2023-01-04T08:37:25;14.50;91.80
4209;DHT22;36320;48.860;2.380;2023-01-04T08:39:51;14.40;91.40
4209;DHT22;36320;48.860;2.380;2023-01-04T08:42:17;14.40;91.40
4209;DHT22;36320;48.860;2.380;2023-01-04T08:44:42;14.50;91.40
4209;DHT22;36320;48.860;2.380;2023-01-04T08:47:08;14.40;91.40
4209;DHT22;36320;48.860;2.380;2023-01-04T08:49:34;14.40;91.40
4209;DHT22;36320;48.860;2.380;2023-01-04T08:52:00;14.50;91.40
4209;DHT22;36320;48.860;2.380;2023-01-04T08:54:27;14.40;91.30
4209;DHT22;36320;48.860;2.380;2023-01-04T08:56:53;14.40;91.40
4209;DHT22;36320;48.860;2.380;2023-01-04T08:59:18;14.50;91.30
4209;DHT22;36320;48.860;2.380;2023-01-04T09:01:44;14.50;91.30
4209;DHT22;36320;48.860;2.380;2023-01-04T09:04:10;14.60;91.30
4209;DHT22;36320;48.860;2.380;2023-01-04T09:06:37;14.60;91.40
4209;DHT22;36320;48.860;2.380;2023-01-04T09:09:03;14.60;91.70
4209;DHT22;36320;48.860;2.380;2023-01-04T09:11:29;14.60;91.50
4209;DHT22;36320;48.860;2.380;2023-01-04T09:13:56;14.50;91.50
4209;DHT22;36320;48.860;2.380;2023-01-04T09:16:24;14.50;91.60
4209;DHT22;36320;48.860;2.380;2023-01-04T09:18:49;14.50;91.70
4209;DHT22;36320;48.860;2.380;2023-01-04T09:21:20;14.60;91.70
4209;DHT22;36320;48.860;2.380;2023-01-04T09:23:47;14.60;91.80
4209;DHT22;36320;48.860;2.380;2023-01-04T09:26:19;14.50;91.80
4209;DHT22;36320;48.860;2.380;2023-01-04T09:28:52;14.50;92.00
4209;DHT22;36320;48.860;2.380;2023-01-04T09:31:21;14.60;92.00
4209;DHT22;36320;48.860;2.380;2023-01-04T09:33:47;14.60;92.00
4209;DHT22;36320;48.860;2.380;2023-01-04T09:36:14;14.70;91.90
4209;DHT22;36320;48.860;2.380;2023-01-04T09:38:42;14.80;91.70
4209;DHT22;36320;48.860;2.380;2023-01-04T09:44:01;14.80;91.70
4209;DHT22;36320;48.860;2.380;2023-01-04T09:46:35;14.60;91.70
4209;DHT22;36320;48.860;2.380;2023-01-04T09:51:41;14.80;91.70
4209;DHT22;36320;48.860;2.380;2023-01-04T09:54:13;14.90;91.70
4209;DHT22;36320;48.860;2.380;2023-01-04T09:56:47;14.90;91.50
4209;DHT22;36320;48.860;2.380;2023-01-04T09:59:16;14.90;91.50
4209;DHT22;36320;48.860;2.380;2023-01-04T10:01:47;14.90;91.60
4209;DHT22;36320;48.860;2.380;2023-01-04T10:04:25;14.90;91.50
4209;DHT22;36320;48.860;2.380;2023-01-04T10:06:53;14.90;91.40
4209;DHT22;36320;48.860;2.380;2023-01-04T10:09:19;14.90;91.30
4209;DHT22;36320;48.860;2.380;2023-01-04T10:15:05;14.80;91.20
4209;DHT22;36320;48.860;2.380;2023-01-04T10:17:58;14.70;91.40
4209;DHT22;36320;48.860;2.380;2023-01-04T10:23:13;14.70;91.20
4209;DHT22;36320;48.860;2.380;2023-01-04T10:26:14;14.90;91.20
4209;DHT22;36320;48.860;2.380;2023-01-04T10:31:39;15.00;91.10
4209;DHT22;36320;48.860;2.380;2023-01-04T10:34:28;15.00;91.10
4209;DHT22;36320;48.860;2.380;2023-01-04T10:37:03;15.10;91.00
4209;DHT22;36320;48.860;2.380;2023-01-04T10:39:33;15.00;90.90
4209;DHT22;36320;48.860;2.380;2023-01-04T10:42:20;15.00;91.10
4209;DHT22;36320;48.860;2.380;2023-01-04T10:45:21;15.10;91.10
4209;DHT22;36320;48.860;2.380;2023-01-04T10:50:53;15.10;91.00
4209;DHT22;36320;48.860;2.380;2023-01-04T10:56:37;15.10;91.10
4209;DHT22;36320;48.860;2.380;2023-01-04T11:04:46;15.00;91.30
4209;DHT22;36320;48.860;2.380;2023-01-04T11:07:25;15.00;91.40
4209;DHT22;36320;48.860;2.380;2023-01-04T11:10:00;15.10;91.40
4209;DHT22;36320;48.860;2.380;2023-01-04T11:12:27;15.20;91.40
4209;DHT22;36320;48.860;2.380;2023-01-04T11:14:53;15.10;91.40
4209;DHT22;36320;48.860;2.380;2023-01-04T11:17:20;15.00;91.50
4209;DHT22;36320;48.860;2.380;2023-01-04T11:19:48;15.00;91.40
4209;DHT22;36320;48.860;2.380;2023-01-04T11:22:34;15.00;91.50
4209;DHT22;36320;48.860;2.380;2023-01-04T11:25:06;15.10;91.40
4209;DHT22;36320;48.860;2.380;2023-01-04T11:28:12;15.10;91.40
4209;DHT22;36320;48.860;2.380;2023-01-04T11:30:57;15.10;91.40
4209;DHT22;36320;48.860;2.380;2023-01-04T11:33:25;15.00;91.50
4209;DHT22;36320;48.860;2.380;2023-01-04T11:35:53;15.10;91.60
4209;DHT22;36320;48.860;2.380;2023-01-04T11:38:23;15.20;91.60
4209;DHT22;36320;48.860;2.380;2023-01-04T11:43:28;15.10;91.80
4209;DHT22;36320;48.860;2.380;2023-01-04T11:48:42;15.10;92.00
4209;DHT22;36320;48.860;2.380;2023-01-04T11:53:58;15.10;92.20
4209;DHT22;36320;48.860;2.380;2023-01-04T11:56:26;15.10;92.30
4209;DHT22;36320;48.860;2.380;2023-01-04T11:59:15;15.10;92.30
4209;DHT22;36320;48.860;2.380;2023-01-04T12:01:44;15.00;92.40
4209;DHT22;36320;48.860;2.380;2023-01-04T12:04:17;15.00;92.40
4209;DHT22;36320;48.860;2.380;2023-01-04T12:09:20;15.00;92.40
4209;DHT22;36320;48.860;2.380;2023-01-04T12:11:51;14.80;92.50
4209;DHT22;36320;48.860;2.380;2023-01-04T12:14:29;15.00;92.60
4209;DHT22;36320;48.860;2.380;2023-01-04T12:17:20;15.10;92.60
4209;DHT22;36320;48.860;2.380;2023-01-04T12:19:48;15.00;92.50
4209;DHT22;36320;48.860;2.380;2023-01-04T12:22:33;15.00;92.60
4209;DHT22;36320;48.860;2.380;2023-01-04T12:25:22;15.00;92.70
4209;DHT22;36320;48.860;2.380;2023-01-04T12:28:02;15.10;92.70
4209;DHT22;36320;48.860;2.380;2023-01-04T12:30:47;15.40;92.80
4209;DHT22;36320;48.860;2.380;2023-01-04T12:38:57;15.30;92.40
4209;DHT22;36320;48.860;2.380;2023-01-04T12:50:18;14.70;92.10
4209;DHT22;36320;48.860;2.380;2023-01-04T12:52:53;15.40;92.30
4209;DHT22;36320;48.860;2.380;2023-01-04T12:58:08;15.50;92.30
4209;DHT22;36320;48.860;2.380;2023-01-04T13:08:25;15.50;92.20
4209;DHT22;36320;48.860;2.380;2023-01-04T13:10:55;15.50;92.40
4209;DHT22;36320;48.860;2.380;2023-01-04T13:17:16;15.60;92.60
4209;DHT22;36320;48.860;2.380;2023-01-04T13:19:43;15.60;92.50
4209;DHT22;36320;48.860;2.380;2023-01-04T13:22:16;15.70;92.60
4209;DHT22;36320;48.860;2.380;2023-01-04T13:24:44;15.70;92.60
4209;DHT22;36320;48.860;2.380;2023-01-04T13:27:23;15.70;92.50
4209;DHT22;36320;48.860;2.380;2023-01-04T13:29:50;15.70;92.50
4209;DHT22;36320;48.860;2.380;2023-01-04T13:32:32;15.70;92.60
4209;DHT22;36320;48.860;2.380;2023-01-04T13:35:07;15.70;92.60
4209;DHT22;36320;48.860;2.380;2023-01-04T13:37:35;15.70;92.60
4209;DHT22;36320;48.860;2.380;2023-01-04T13:40:23;15.70;92.70
4209;DHT22;36320;48.860;2.380;2023-01-04T13:48:13;15.60;93.00
4209;DHT22;36320;48.860;2.380;2023-01-04T13:50:42;15.70;93.00
4209;DHT22;36320;48.860;2.380;2023-01-04T13:53:22;15.70;93.00
4209;DHT22;36320;48.860;2.380;2023-01-04T13:55:50;15.60;93.10
4209;DHT22;36320;48.860;2.380;2023-01-04T13:58:20;15.70;93.20
4209;DHT22;36320;48.860;2.380;2023-01-04T14:00:50;15.70;93.20
4209;DHT22;36320;48.860;2.380;2023-01-04T14:06:15;15.70;93.20
4209;DHT22;36320;48.860;2.380;2023-01-04T14:08:55;15.70;93.50
4209;DHT22;36320;48.860;2.380;2023-01-04T14:11:47;15.70;93.60
4209;DHT22;36320;48.860;2.380;2023-01-04T14:36:10;15.70;93.70
4209;DHT22;36320;48.860;2.380;2023-01-04T14:41:20;15.70;93.80
4209;DHT22;36320;48.860;2.380;2023-01-04T14:43:49;15.90;93.80
4209;DHT22;36320;48.860;2.380;2023-01-04T14:46:21;15.90;93.70
4209;DHT22;36320;48.860;2.380;2023-01-04T14:48:48;15.90;93.70
4209;DHT22;36320;48.860;2.380;2023-01-04T14:51:19;16.00;93.60
4209;DHT22;36320;48.860;2.380;2023-01-04T14:53:44;15.90;93.60
4209;DHT22;36320;48.860;2.380;2023-01-04T14:56:16;15.90;93.70
4209;DHT22;36320;48.860;2.380;2023-01-04T14:58:43;15.70;93.50
4209;DHT22;36320;48.860;2.380;2023-01-04T15:01:12;15.90;93.60
4209;DHT22;36320;48.860;2.380;2023-01-04T15:03:40;15.90;93.50
4209;DHT22;36320;48.860;2.380;2023-01-04T15:06:07;15.80;93.60
4209;DHT22;36320;48.860;2.380;2023-01-04T15:08:33;15.90;93.60
4209;DHT22;36320;48.860;2.380;2023-01-04T15:10:59;15.90;93.50
4209;DHT22;36320;48.860;2.380;2023-01-04T15:13:25;16.00;93.40
4209;DHT22;36320;48.860;2.380;2023-01-04T15:15:50;15.90;93.40
4209;DHT22;36320;48.860;2.380;2023-01-04T15:18:17;15.90;93.40
4209;DHT22;36320;48.860;2.380;2023-01-04T15:20:43;16.10;93.40
4209;DHT22;36320;48.860;2.380;2023-01-04T15:23:09;16.10;93.20
4209;DHT22;36320;48.860;2.380;2023-01-04T15:25:38;16.10;93.30
4209;DHT22;36320;48.860;2.380;2023-01-04T15:28:04;16.10;93.30
4209;DHT22;36320;48.860;2.380;2023-01-04T15:30:30;16.10;93.30
4209;DHT22;36320;48.860;2.380;2023-01-04T15:32:56;16.10;93.30
4209;DHT22;36320;48.860;2.380;2023-01-04T15:35:22;16.10;93.40
4209;DHT22;36320;48.860;2.380;2023-01-04T15:37:48;16.10;93.30
4209;DHT22;36320;48.860;2.380;2023-01-04T15:40:16;16.20;93.40
4209;DHT22;36320;48.860;2.380;2023-01-04T15:42:42;16.20;93.30
4209;DHT22;36320;48.860;2.380;2023-01-04T15:45:38;16.20;93.20
4209;DHT22;36320;48.860;2.380;2023-01-04T15:48:05;16.20;93.30
4209;DHT22;36320;48.860;2.380;2023-01-04T15:50:37;16.20;93.20
4209;DHT22;36320;48.860;2.380;2023-01-04T15:53:07;16.10;93.20
4209;DHT22;36320;48.860;2.380;2023-01-04T15:55:34;16.10;93.20
4209;DHT22;36320;48.860;2.380;2023-01-04T15:58:00;16.10;93.10
4209;DHT22;36320;48.860;2.380;2023-01-04T16:00:26;16.00;93.10
4209;DHT22;36320;48.860;2.380;2023-01-04T16:02:52;16.00;93.20
4209;DHT22;36320;48.860;2.380;2023-01-04T16:05:18;16.00;93.10
4209;DHT22;36320;48.860;2.380;2023-01-04T16:07:47;16.00;93.10
4209;DHT22;36320;48.860;2.380;2023-01-04T16:10:14;16.10;93.00
4209;DHT22;36320;48.860;2.380;2023-01-04T16:12:41;16.20;93.00
4209;DHT22;36320;48.860;2.380;2023-01-04T16:15:18;16.30;92.90
4209;DHT22;36320;48.860;2.380;2023-01-04T16:17:48;16.30;92.80
4209;DHT22;36320;48.860;2.380;2023-01-04T16:20:15;16.30;92.70
4209;DHT22;36320;48.860;2.380;2023-01-04T16:22:44;16.40;92.70
4209;DHT22;36320;48.860;2.380;2023-01-04T16:25:10;16.50;92.60
4209;DHT22;36320;48.860;2.380;2023-01-04T16:27:36;16.40;92.50
4209;DHT22;36320;48.860;2.380;2023-01-04T16:30:06;16.40;92.50
4209;DHT22;36320;48.860;2.380;2023-01-04T16:32:34;16.50;92.40
4209;DHT22;36320;48.860;2.380;2023-01-04T16:34:59;16.20;92.30
4209;DHT22;36320;48.860;2.380;2023-01-04T16:37:26;16.40;92.40
4209;DHT22;36320;48.860;2.380;2023-01-04T16:39:53;16.40;92.40
4209;DHT22;36320;48.860;2.380;2023-01-04T16:42:19;16.40;92.40
4209;DHT22;36320;48.860;2.380;2023-01-04T16:44:45;16.40;92.30
4209;DHT22;36320;48.860;2.380;2023-01-04T16:47:11;16.50;92.40
4209;DHT22;36320;48.860;2.380;2023-01-04T16:49:37;16.40;92.30
4209;DHT22;36320;48.860;2.380;2023-01-04T16:52:03;16.40;92.40
4209;DHT22;36320;48.860;2.380;2023-01-04T16:54:31;16.40;92.50
4209;DHT22;36320;48.860;2.380;2023-01-04T16:56:57;16.40;92.50
4209;DHT22;36320;48.860;2.380;2023-01-04T16:59:23;16.50;92.40
4209;DHT22;36320;48.860;2.380;2023-01-04T17:01:49;16.50;92.40
4209;DHT22;36320;48.860;2.380;2023-01-04T17:04:17;16.40;92.50
4209;DHT22;36320;48.860;2.380;2023-01-04T17:06:44;16.50;92.40
4209;DHT22;36320;48.860;2.380;2023-01-04T17:09:16;16.50;92.50
4209;DHT22;36320;48.860;2.380;2023-01-04T17:11:42;16.50;92.40
4209;DHT22;36320;48.860;2.380;2023-01-04T17:14:28;16.50;92.40
4209;DHT22;36320;48.860;2.380;2023-01-04T17:16:54;16.50;92.40
4209;DHT22;36320;48.860;2.380;2023-01-04T17:19:23;16.50;92.40
4209;DHT22;36320;48.860;2.380;2023-01-04T17:21:49;16.50;92.40
4209;DHT22;36320;48.860;2.380;2023-01-04T17:24:17;16.60;92.70
4209;DHT22;36320;48.860;2.380;2023-01-04T17:26:43;16.60;92.40
4209;DHT22;36320;48.860;2.380;2023-01-04T17:29:10;16.50;92.30
4209;DHT22;36320;48.860;2.380;2023-01-04T17:31:38;16.40;92.50
4209;DHT22;36320;48.860;2.380;2023-01-04T17:34:05;16.40;92.50
4209;DHT22;36320;48.860;2.380;2023-01-04T17:36:31;16.40;92.50
4209;DHT22;36320;48.860;2.380;2023-01-04T17:39:00;16.50;92.50
4209;DHT22;36320;48.860;2.380;2023-01-04T17:41:27;16.50;92.50
4209;DHT22;36320;48.860;2.380;2023-01-04T17:43:59;16.50;92.40
4209;DHT22;36320;48.860;2.380;2023-01-04T17:46:27;16.50;92.60
4209;DHT22;36320;48.860;2.380;2023-01-04T17:48:53;16.50;92.60
4209;DHT22;36320;48.860;2.380;2023-01-04T17:51:21;16.50;92.50
4209;DHT22;36320;48.860;2.380;2023-01-04T17:53:56;16.50;92.50
4209;DHT22;36320;48.860;2.380;2023-01-04T17:56:23;15.70;92.30
4209;DHT22;36320;48.860;2.380;2023-01-04T17:58:49;16.30;92.70
4209;DHT22;36320;48.860;2.380;2023-01-04T18:01:18;16.50;92.90
4209;DHT22;36320;48.860;2.380;2023-01-04T18:03:47;16.40;93.00
4209;DHT22;36320;48.860;2.380;2023-01-04T18:06:14;16.40;93.10
4209;DHT22;36320;48.860;2.380;2023-01-04T18:08:41;16.30;93.30
4209;DHT22;36320;48.860;2.380;2023-01-04T18:11:07;16.40;93.40
4209;DHT22;36320;48.860;2.380;2023-01-04T18:13:36;16.40;93.40
4209;DHT22;36320;48.860;2.380;2023-01-04T18:16:05;16.30;93.50
4209;DHT22;36320;48.860;2.380;2023-01-04T18:18:33;16.30;93.60
4209;DHT22;36320;48.860;2.380;2023-01-04T18:21:32;16.20;93.60
4209;DHT22;36320;48.860;2.380;2023-01-04T18:23:59;16.30;93.70
4209;DHT22;36320;48.860;2.380;2023-01-04T18:26:25;16.30;93.70
4209;DHT22;36320;48.860;2.380;2023-01-04T18:28:51;16.30;93.60
4209;DHT22;36320;48.860;2.380;2023-01-04T18:31:20;16.40;93.60
4209;DHT22;36320;48.860;2.380;2023-01-04T18:33:52;16.30;93.60
4209;DHT22;36320;48.860;2.380;2023-01-04T18:36:20;16.40;93.50
4209;DHT22;36320;48.860;2.380;2023-01-04T18:38:49;16.40;93.50
4209;DHT22;36320;48.860;2.380;2023-01-04T18:41:15;16.40;93.50
4209;DHT22;36320;48.860;2.380;2023-01-04T18:43:41;16.40;93.40
4209;DHT22;36320;48.860;2.380;2023-01-04T18:46:08;16.40;93.30
4209;DHT22;36320;48.860;2.380;2023-01-04T18:48:35;16.40;93.40
4209;DHT22;36320;48.860;2.380;2023-01-04T18:51:09;16.50;93.30
4209;DHT22;36320;48.860;2.380;2023-01-04T18:53:36;16.60;93.20
4209;DHT22;36320;48.860;2.380;2023-01-04T18:56:04;16.60;93.00
4209;DHT22;36320;48.860;2.380;2023-01-04T18:58:30;16.60;93.00
4209;DHT22;36320;48.860;2.380;2023-01-04T19:01:03;16.50;93.00
4209;DHT22;36320;48.860;2.380;2023-01-04T19:03:31;16.40;92.90
4209;DHT22;36320;48.860;2.380;2023-01-04T19:05:57;16.40;93.10
4209;DHT22;36320;48.860;2.380;2023-01-04T19:08:23;16.40;93.10
4209;DHT22;36320;48.860;2.380;2023-01-04T19:10:49;16.40;93.10
4209;DHT22;36320;48.860;2.380;2023-01-04T19:13:14;16.40;92.90
4209;DHT22;36320;48.860;2.380;2023-01-04T19:15:42;16.30;92.90
4209;DHT22;36320;48.860;2.380;2023-01-04T19:18:09;16.40;92.90
4209;DHT22;36320;48.860;2.380;2023-01-04T19:20:37;16.40;92.90
4209;DHT22;36320;48.860;2.380;2023-01-04T19:23:04;16.40;92.80
4209;DHT22;36320;48.860;2.380;2023-01-04T19:25:30;16.40;92.80
4209;DHT22;36320;48.860;2.380;2023-01-04T19:27:55;16.40;92.60
4209;DHT22;36320;48.860;2.380;2023-01-04T19:30:21;16.50;92.60
4209;DHT22;36320;48.860;2.380;2023-01-04T19:32:47;16.50;92.50
4209;DHT22;36320;48.860;2.380;2023-01-04T19:35:17;16.50;92.50
4209;DHT22;36320;48.860;2.380;2023-01-04T19:37:42;16.50;92.50
4209;DHT22;36320;48.860;2.380;2023-01-04T19:40:09;16.50;92.50
4209;DHT22;36320;48.860;2.380;2023-01-04T19:42:35;16.50;92.50
4209;DHT22;36320;48.860;2.380;2023-01-04T19:45:01;16.20;92.20
4209;DHT22;36320;48.860;2.380;2023-01-04T19:47:27;16.60;92.30
4209;DHT22;36320;48.860;2.380;2023-01-04T19:49:52;16.50;92.30
4209;DHT22;36320;48.860;2.380;2023-01-04T19:52:18;16.50;92.30
4209;DHT22;36320;48.860;2.380;2023-01-04T19:54:44;16.50;92.30
4209;DHT22;36320;48.860;2.380;2023-01-04T19:57:09;16.60;92.30
4209;DHT22;36320;48.860;2.380;2023-01-04T19:59:35;16.60;92.30
4209;DHT22;36320;48.860;2.380;2023-01-04T20:02:01;16.60;92.20
4209;DHT22;36320;48.860;2.380;2023-01-04T20:04:27;16.60;92.20
4209;DHT22;36320;48.860;2.380;2023-01-04T20:06:53;16.60;92.10
4209;DHT22;36320;48.860;2.380;2023-01-04T20:09:19;16.70;92.10
4209;DHT22;36320;48.860;2.380;2023-01-04T20:11:52;16.60;92.10
4209;DHT22;36320;48.860;2.380;2023-01-04T20:14:17;16.60;92.10
4209;DHT22;36320;48.860;2.380;2023-01-04T20:16:43;16.50;92.20
4209;DHT22;36320;48.860;2.380;2023-01-04T20:19:09;16.60;92.20
4209;DHT22;36320;48.860;2.380;2023-01-04T20:21:34;16.60;92.20
4209;DHT22;36320;48.860;2.380;2023-01-04T20:24:00;16.50;92.20
4209;DHT22;36320;48.860;2.380;2023-01-04T20:26:26;16.50;92.30
4209;DHT22;36320;48.860;2.380;2023-01-04T20:28:53;16.50;92.30
4209;DHT22;36320;48.860;2.380;2023-01-04T20:31:20;16.60;92.20
4209;DHT22;36320;48.860;2.380;2023-01-04T20:33:46;16.60;92.20
4209;DHT22;36320;48.860;2.380;2023-01-04T20:36:17;16.50;92.20
4209;DHT22;36320;48.860;2.380;2023-01-04T20:38:44;16.50;92.30
4209;DHT22;36320;48.860;2.380;2023-01-04T20:41:16;16.50;92.20
4209;DHT22;36320;48.860;2.380;2023-01-04T20:43:43;16.60;92.30
4209;DHT22;36320;48.860;2.380;2023-01-04T20:46:14;16.60;92.10
